Time;durP1;ratioP1;P1;durP2;ratioP2;P2;SDS_P1;SDS_P2;PMS_P1;PMS_P2;Temp;Humidity;BMP_temperature;BMP_pressure;BME280_temperature;BME280_humidity;BME280_pressure;Samples;Min_cycle;Max_cycle;Signal;HPM_P1;HPM_P2
2022/02/13 00:00:20;;;;;;;13.90;8.40;;;-1.30;99.90;;;;;;5070323;28;20115;-73
2022/02/13 00:02:52;;;;;;;12.23;8.60;;;-1.30;99.90;;;;;;5051806;28;20036;-72
2022/02/13 00:05:24;;;;;;;10.45;8.00;;;-1.30;99.90;;;;;;5052215;28;20135;-72
2022/02/13 00:07:56;;;;;;;10.63;7.22;;;-1.40;99.90;;;;;;5070427;28;20064;-73
2022/02/13 00:10:29;;;;;;;11.23;7.22;;;-1.40;99.90;;;;;;5070259;28;20041;-73
2022/02/13 00:12:58;;;;;;;12.57;7.47;;;-1.40;99.90;;;;;;5068481;28;20435;-72
2022/02/13 00:15:31;;;;;;;9.40;6.97;;;-1.40;99.90;;;;;;5051974;28;20037;-72
2022/02/13 00:18:04;;;;;;;11.70;7.20;;;-1.40;99.90;;;;;;5069098;28;20075;-72
2022/02/13 00:20:40;;;;;;;9.18;5.57;;;-1.40;99.90;;;;;;5070086;28;20500;-71
2022/02/13 00:23:14;;;;;;;10.07;6.43;;;-1.40;99.90;;;;;;5036170;28;20492;-72
2022/02/13 00:25:46;;;;;;;9.18;5.47;;;-1.40;99.90;;;;;;5052044;28;20052;-72
2022/02/13 00:28:19;;;;;;;7.25;4.35;;;-1.50;99.90;;;;;;5053076;28;20123;-71
2022/02/13 00:30:49;;;;;;;7.35;4.85;;;-1.50;99.90;;;;;;5052445;28;20076;-72
2022/02/13 00:33:16;;;;;;;6.20;4.28;;;-1.50;99.90;;;;;;5069486;28;20518;-72
2022/02/13 00:35:49;;;;;;;6.90;3.57;;;-1.50;99.90;;;;;;5031625;28;1085325;-71
2022/02/13 00:38:17;;;;;;;6.80;4.43;;;-1.50;99.90;;;;;;5070791;28;20128;-72
2022/02/13 00:40:48;;;;;;;8.75;4.75;;;-1.50;99.90;;;;;;5036857;28;20040;-72
2022/02/13 00:43:20;;;;;;;7.68;4.82;;;-1.50;99.90;;;;;;5052151;28;20709;-73
2022/02/13 00:45:47;;;;;;;8.32;5.05;;;-1.50;99.90;;;;;;5053041;28;20048;-73
2022/02/13 00:48:19;;;;;;;8.57;5.82;;;-1.50;99.90;;;;;;5070734;28;20158;-73
2022/02/13 00:50:54;;;;;;;9.23;5.97;;;-1.50;99.90;;;;;;5053999;28;20466;-73
2022/02/13 00:53:26;;;;;;;7.75;6.13;;;-1.50;99.90;;;;;;5053265;28;20128;-73
2022/02/13 00:55:53;;;;;;;8.82;5.65;;;-1.50;99.90;;;;;;5070540;28;20048;-73
2022/02/13 00:58:28;;;;;;;7.45;5.22;;;-1.50;99.90;;;;;;5053987;28;20051;-73
2022/02/13 01:01:04;;;;;;;8.38;5.28;;;-1.50;99.90;;;;;;5052600;28;20544;-73
2022/02/13 01:03:31;;;;;;;8.88;5.55;;;-1.50;99.90;;;;;;5068789;28;20586;-73
2022/02/13 01:06:02;;;;;;;9.25;5.35;;;-1.60;99.90;;;;;;5070670;28;20048;-73
2022/02/13 01:08:33;;;;;;;12.50;7.32;;;-1.60;99.90;;;;;;5069649;28;20048;-72
2022/02/13 01:11:06;;;;;;;11.07;6.78;;;-1.60;99.90;;;;;;5052604;28;20625;-73
2022/02/13 01:13:44;;;;;;;9.88;6.05;;;-1.60;99.90;;;;;;5069887;28;20036;-73
2022/02/13 01:16:18;;;;;;;10.23;6.05;;;-1.60;99.90;;;;;;5068536;28;20576;-73
2022/02/13 01:18:47;;;;;;;13.52;7.00;;;-1.60;99.90;;;;;;5052503;28;20037;-72
2022/02/13 01:21:19;;;;;;;8.77;6.00;;;-1.70;99.90;;;;;;5052495;28;20047;-73
2022/02/13 01:23:46;;;;;;;9.55;6.80;;;-1.70;99.90;;;;;;5068910;28;20051;-72
2022/02/13 01:26:20;;;;;;;12.13;7.28;;;-1.70;99.90;;;;;;5056161;28;20064;-73
2022/02/13 01:28:53;;;;;;;10.73;6.60;;;-1.70;99.90;;;;;;5055652;28;20059;-73
2022/02/13 01:31:27;;;;;;;12.57;7.18;;;-1.80;99.90;;;;;;5056827;28;20115;-73
2022/02/13 01:33:54;;;;;;;10.68;6.75;;;-1.80;99.90;;;;;;5073317;28;20128;-73
2022/02/13 01:36:21;;;;;;;10.18;6.68;;;-1.80;99.90;;;;;;5055645;28;20079;-72
2022/02/13 01:38:53;;;;;;;11.15;5.88;;;-1.80;99.90;;;;;;5055703;28;20033;-72
2022/02/13 01:41:24;;;;;;;9.13;6.10;;;-1.90;99.90;;;;;;5039967;28;20144;-73
2022/02/13 01:43:55;;;;;;;9.30;5.95;;;-1.90;99.90;;;;;;5055225;28;20447;-72
2022/02/13 01:46:27;;;;;;;8.90;6.05;;;-1.90;99.90;;;;;;5055573;28;20148;-71
2022/02/13 01:48:54;;;;;;;7.28;5.75;;;-1.90;99.90;;;;;;5038951;28;20083;-73
2022/02/13 01:51:25;;;;;;;8.38;5.93;;;-1.90;99.90;;;;;;5056627;28;20051;-72
2022/02/13 01:53:56;;;;;;;9.90;6.20;;;-1.90;99.90;;;;;;5054961;28;20458;-73
2022/02/13 01:56:25;;;;;;;13.50;6.45;;;-1.90;99.90;;;;;;5072437;28;20380;-73
2022/02/13 01:59:00;;;;;;;9.93;5.75;;;-1.90;99.90;;;;;;5073153;28;20116;-71
2022/02/13 02:01:32;;;;;;;8.55;5.82;;;-1.90;99.90;;;;;;5038954;28;20102;-73
2022/02/13 02:03:59;;;;;;;11.02;5.93;;;-2.00;99.90;;;;;;5070852;28;20048;-71
2022/02/13 02:06:31;;;;;;;9.93;6.05;;;-2.00;99.90;;;;;;5072684;28;20051;-71
2022/02/13 02:08:59;;;;;;;9.23;5.80;;;-2.00;99.90;;;;;;5054897;28;20151;-72
2022/02/13 02:11:31;;;;;;;8.55;6.22;;;-2.10;99.90;;;;;;5054441;28;20598;-72
2022/02/13 02:14:03;;;;;;;7.72;5.05;;;-2.10;99.90;;;;;;5070940;28;20040;-71
2022/02/13 02:16:30;;;;;;;9.80;5.70;;;-2.10;99.90;;;;;;5054339;28;20143;-72
2022/02/13 02:19:00;;;;;;;8.10;5.53;;;-2.10;99.90;;;;;;5072439;28;20064;-73
2022/02/13 02:21:32;;;;;;;9.57;6.93;;;-2.20;99.90;;;;;;5038613;28;20036;-72
2022/02/13 02:24:04;;;;;;;8.45;5.10;;;-2.20;99.90;;;;;;5055118;28;20091;-73
2022/02/13 02:26:39;;;;;;;5.68;3.50;;;-2.20;99.90;;;;;;5055300;28;20514;-72
2022/02/13 02:29:07;;;;;;;6.47;4.55;;;-2.10;99.90;;;;;;5072383;28;20115;-73
2022/02/13 02:31:39;;;;;;;10.05;6.15;;;-2.10;99.90;;;;;;5053915;28;20040;-73
2022/02/13 02:34:15;;;;;;;11.98;7.70;;;-2.00;99.90;;;;;;5071793;28;20040;-72
2022/02/13 02:36:49;;;;;;;10.18;6.88;;;-2.00;99.90;;;;;;5037376;28;20135;-72
2022/02/13 02:39:16;;;;;;;10.70;7.13;;;-2.00;99.90;;;;;;5054244;28;20148;-73
2022/02/13 02:41:48;;;;;;;12.23;8.27;;;-2.00;99.90;;;;;;5038265;28;20041;-72
2022/02/13 02:44:19;;;;;;;11.77;9.00;;;-2.00;99.90;;;;;;5070423;28;20044;-72
2022/02/13 02:46:51;;;;;;;17.67;10.13;;;-2.10;99.90;;;;;;5053933;28;20052;-73
2022/02/13 02:49:20;;;;;;;15.73;10.25;;;-2.10;99.90;;;;;;5053894;28;20135;-73
2022/02/13 02:51:47;;;;;;;18.00;9.48;;;-2.10;99.90;;;;;;5053807;28;20556;-73
2022/02/13 02:54:20;;;;;;;14.27;8.90;;;-2.10;99.90;;;;;;5071228;28;20123;-73
2022/02/13 02:56:47;;;;;;;12.63;8.30;;;-2.10;99.90;;;;;;5071414;28;20578;-72
2022/02/13 02:59:19;;;;;;;14.77;9.43;;;-2.10;99.90;;;;;;5053577;28;20045;-72
2022/02/13 03:01:51;;;;;;;14.63;7.70;;;-2.20;99.90;;;;;;5053596;28;20040;-73
2022/02/13 03:04:23;;;;;;;12.68;8.77;;;-2.20;99.90;;;;;;5071187;28;20036;-71
2022/02/13 03:06:56;;;;;;;11.10;7.60;;;-2.20;99.90;;;;;;5071488;28;20040;-73
2022/02/13 03:09:28;;;;;;;13.02;7.53;;;-2.20;99.90;;;;;;5071392;28;20044;-72
2022/02/13 03:11:59;;;;;;;12.75;7.72;;;-2.20;99.90;;;;;;5054220;28;20054;-71
2022/02/13 03:14:27;;;;;;;14.77;8.10;;;-2.20;99.90;;;;;;5070741;28;20121;-72
2022/02/13 03:16:54;;;;;;;11.27;7.30;;;-2.20;99.90;;;;;;5053443;28;20048;-72
2022/02/13 03:19:26;;;;;;;6.40;4.45;;;-2.30;99.90;;;;;;5053144;28;20051;-73
2022/02/13 03:21:59;;;;;;;5.90;3.97;;;-2.20;99.90;;;;;;5070357;28;20043;-73
2022/02/13 03:24:31;;;;;;;4.15;2.30;;;-2.20;99.90;;;;;;5067584;28;20040;-72
2022/02/13 03:27:04;;;;;;;5.50;2.67;;;-1.90;99.90;;;;;;5037327;28;20503;-73
2022/02/13 03:29:36;;;;;;;3.30;2.38;;;-1.60;99.90;;;;;;5063511;28;20049;-73
2022/02/13 03:32:04;;;;;;;4.55;2.22;;;-1.40;99.90;;;;;;5050772;28;20079;-72
2022/02/13 03:34:36;;;;;;;5.10;2.65;;;-1.40;99.90;;;;;;5053444;28;20124;-73
2022/02/13 03:37:03;;;;;;;4.53;2.75;;;-1.40;99.90;;;;;;5052737;28;20131;-72
2022/02/13 03:39:36;;;;;;;6.75;3.47;;;-1.40;99.90;;;;;;5052823;28;20139;-72
2022/02/13 03:42:05;;;;;;;5.70;3.42;;;-1.50;99.90;;;;;;5052928;28;20045;-73
2022/02/13 03:44:38;;;;;;;5.82;3.78;;;-1.50;99.90;;;;;;5036344;28;20064;-73
2022/02/13 03:47:10;;;;;;;7.80;4.75;;;-1.60;99.90;;;;;;5069123;28;20052;-73
2022/02/13 03:49:37;;;;;;;8.10;4.80;;;-1.60;99.90;;;;;;5035153;28;20075;-73
2022/02/13 03:52:05;;;;;;;7.78;4.60;;;-1.60;99.90;;;;;;5052743;28;20049;-74
2022/02/13 03:54:32;;;;;;;5.35;4.03;;;-1.70;99.90;;;;;;5052046;28;20068;-73
2022/02/13 03:57:06;;;;;;;4.35;2.40;;;-1.70;99.90;;;;;;5052722;28;20388;-73
2022/02/13 03:59:32;;;;;;;5.80;1.95;;;-1.70;99.90;;;;;;5052023;28;20128;-73
2022/02/13 04:01:59;;;;;;;3.88;2.05;;;-1.70;99.90;;;;;;5068835;28;20052;-73
2022/02/13 04:04:32;;;;;;;4.50;2.10;;;-1.60;99.90;;;;;;5070045;28;20534;-73
2022/02/13 04:07:00;;;;;;;3.33;1.63;;;-1.60;99.90;;;;;;5052926;28;20119;-73
2022/02/13 04:09:34;;;;;;;5.60;2.80;;;-1.50;99.90;;;;;;5036760;28;20052;-73
2022/02/13 04:12:08;;;;;;;3.47;2.15;;;-1.50;99.90;;;;;;5052426;28;20406;-73
2022/02/13 04:14:37;;;;;;;5.32;2.10;;;-1.40;99.90;;;;;;5068582;28;20044;-73
2022/02/13 04:17:04;;;;;;;4.68;2.90;;;-1.40;99.90;;;;;;5052419;28;20140;-73
2022/02/13 04:19:36;;;;;;;4.50;2.97;;;-1.40;99.90;;;;;;5053935;28;20037;-73
2022/02/13 04:22:07;;;;;;;5.28;3.22;;;-1.40;99.90;;;;;;5053226;28;20047;-74
2022/02/13 04:24:34;;;;;;;4.90;3.42;;;-1.40;99.90;;;;;;5069069;28;20051;-73
2022/02/13 04:27:06;;;;;;;9.07;6.68;;;-1.40;99.90;;;;;;5035948;28;20050;-73
2022/02/13 04:29:33;;;;;;;10.60;7.13;;;-1.50;99.90;;;;;;5068816;28;20124;-71
2022/02/13 04:32:00;;;;;;;7.95;6.38;;;-1.50;99.90;;;;;;5068713;28;20052;-72
2022/02/13 04:34:32;;;;;;;10.23;6.70;;;-1.60;99.90;;;;;;5067667;28;20052;-73
2022/02/13 04:37:04;;;;;;;10.75;7.03;;;-1.60;99.90;;;;;;5035757;28;20047;-73
2022/02/13 04:39:35;;;;;;;10.13;6.00;;;-1.70;99.90;;;;;;5066452;28;20123;-76
2022/02/13 04:42:07;;;;;;;10.02;6.53;;;-1.70;99.90;;;;;;5038479;28;20044;-76
2022/02/13 04:44:34;;;;;;;6.85;5.40;;;-1.70;99.90;;;;;;5056859;28;20143;-74
2022/02/13 04:47:01;;;;;;;9.07;5.55;;;-1.60;99.90;;;;;;5060756;28;20048;-74
2022/02/13 04:49:36;;;;;;;9.38;5.72;;;-1.60;99.90;;;;;;5065034;28;20037;-74
2022/02/13 04:52:08;;;;;;;8.75;5.38;;;-1.60;99.90;;;;;;5059610;28;20410;-73
2022/02/13 04:54:34;;;;;;;8.45;5.32;;;-1.60;99.90;;;;;;5067819;28;20181;-73
2022/02/13 04:57:06;;;;;;;7.63;4.95;;;-1.60;99.90;;;;;;5066803;28;20039;-73
2022/02/13 04:59:35;;;;;;;9.73;5.90;;;-1.10;99.90;;;;;;5079820;28;20668;-73
2022/02/13 05:02:08;;;;;;;9.75;6.00;;;-1.00;99.90;;;;;;5035462;28;20041;-73
2022/02/13 05:04:34;;;;;;;7.65;5.15;;;-1.00;99.90;;;;;;5036403;28;20106;-73
2022/02/13 05:07:01;;;;;;;7.28;5.35;;;-1.10;99.90;;;;;;5054713;28;20072;-73
2022/02/13 05:09:33;;;;;;;8.85;5.82;;;-1.30;99.90;;;;;;5052540;28;20415;-73
2022/02/13 05:12:08;;;;;;;14.57;7.20;;;-1.40;99.90;;;;;;5053305;28;20128;-73
2022/02/13 05:14:40;;;;;;;10.73;6.40;;;-1.60;99.90;;;;;;5036130;28;20103;-73
2022/02/13 05:17:12;;;;;;;10.02;5.85;;;-1.70;99.90;;;;;;5036653;28;20117;-73
2022/02/13 05:19:39;;;;;;;9.15;5.40;;;-1.80;99.90;;;;;;5053052;28;20144;-73
2022/02/13 05:22:06;;;;;;;7.10;5.65;;;-1.90;99.90;;;;;;5036595;28;20051;-73
2022/02/13 05:24:37;;;;;;;7.93;5.03;;;-2.00;99.90;;;;;;5052568;28;20136;-72
2022/02/13 05:27:05;;;;;;;8.32;5.28;;;-2.00;99.90;;;;;;5036733;28;20140;-73
2022/02/13 05:29:37;;;;;;;8.35;5.00;;;-2.10;99.90;;;;;;5036390;28;20419;-73
2022/02/13 05:32:09;;;;;;;9.75;5.32;;;-2.10;99.90;;;;;;5036406;28;20055;-73
2022/02/13 05:34:41;;;;;;;8.85;4.93;;;-2.10;99.90;;;;;;5052847;28;20069;-72
2022/02/13 05:37:12;;;;;;;7.60;4.78;;;-2.20;99.90;;;;;;5045381;28;20045;-73
2022/02/13 05:39:44;;;;;;;7.53;4.85;;;-2.20;99.90;;;;;;5057402;28;20044;-72
2022/02/13 05:42:16;;;;;;;5.25;3.78;;;-2.30;99.90;;;;;;5074122;28;20495;-73
2022/02/13 05:44:48;;;;;;;7.10;3.95;;;-2.30;99.90;;;;;;5056834;28;20132;-73
2022/02/13 05:47:19;;;;;;;5.40;3.60;;;-2.40;99.90;;;;;;5056072;28;20051;-73
2022/02/13 05:49:51;;;;;;;5.10;3.42;;;-2.40;99.90;;;;;;5072644;28;20044;-73
2022/02/13 05:52:18;;;;;;;5.80;3.88;;;-2.40;99.90;;;;;;5055713;28;20558;-73
2022/02/13 05:54:50;;;;;;;7.47;4.28;;;-2.40;99.90;;;;;;5056807;28;20096;-73
2022/02/13 05:57:17;;;;;;;6.95;4.25;;;-2.40;99.90;;;;;;5056319;28;20111;-73
2022/02/13 05:59:48;;;;;;;5.32;3.47;;;-2.40;99.90;;;;;;5056681;28;20388;-73
2022/02/13 06:02:15;;;;;;;4.72;2.75;;;-2.40;99.90;;;;;;5055820;28;20436;-73
2022/02/13 06:04:42;;;;;;;5.45;2.90;;;-2.40;99.90;;;;;;5073625;28;20408;-72
2022/02/13 06:07:15;;;;;;;5.32;2.72;;;-2.50;99.90;;;;;;5055876;28;20181;-73
2022/02/13 06:09:47;;;;;;;5.15;2.08;;;-2.50;99.90;;;;;;5056675;28;20115;-73
2022/02/13 06:12:19;;;;;;;8.15;2.92;;;-2.40;99.90;;;;;;5073425;28;20046;-72
2022/02/13 06:14:51;;;;;;;5.43;2.03;;;-2.40;99.90;;;;;;5073381;28;20041;-73
2022/02/13 06:17:17;;;;;;;6.43;3.05;;;-2.30;99.90;;;;;;5055671;28;20111;-73
2022/02/13 06:19:45;;;;;;;3.55;1.73;;;-2.20;99.90;;;;;;5055452;28;20040;-73
2022/02/13 06:22:19;;;;;;;6.20;3.05;;;-2.00;99.90;;;;;;5071611;28;20052;-73
2022/02/13 06:24:47;;;;;;;5.40;3.05;;;-1.90;99.90;;;;;;5055187;28;20151;-72
2022/02/13 06:27:19;;;;;;;5.10;3.13;;;-1.90;99.90;;;;;;5055292;28;20522;-73
2022/02/13 06:29:54;;;;;;;4.50;2.47;;;-1.80;99.90;;;;;;5073363;28;20041;-72
2022/02/13 06:32:26;;;;;;;3.58;2.28;;;-1.80;99.90;;;;;;5038866;28;20040;-72
2022/02/13 06:34:57;;;;;;;2.50;1.48;;;-1.70;99.90;;;;;;5073271;28;20051;-73
2022/02/13 06:37:32;;;;;;;6.22;2.40;;;-1.50;99.90;;;;;;5073196;28;20068;-72
2022/02/13 06:40:05;;;;;;;6.20;3.55;;;-1.50;99.90;;;;;;5071953;28;20120;-73
2022/02/13 06:42:36;;;;;;;3.40;2.42;;;-1.50;99.90;;;;;;5072565;28;20414;-73
2022/02/13 06:45:09;;;;;;;3.72;2.10;;;-1.40;99.90;;;;;;5055014;28;20056;-73
2022/02/13 06:47:41;;;;;;;3.33;2.42;;;-1.40;99.90;;;;;;5054959;28;20050;-73
2022/02/13 06:50:09;;;;;;;5.32;2.95;;;-1.40;99.90;;;;;;5071510;28;20068;-72
2022/02/13 06:52:40;;;;;;;5.03;3.30;;;-1.40;99.90;;;;;;5054417;28;20347;-73
2022/02/13 06:55:08;;;;;;;5.88;4.13;;;-1.40;99.90;;;;;;5073284;28;20075;-73
2022/02/13 06:57:48;;;;;;;5.45;3.90;;;-1.40;99.90;;;;;;5054705;28;20036;-73
2022/02/13 07:00:15;;;;;;;6.40;4.00;;;-1.40;99.90;;;;;;5072603;28;20055;-72
2022/02/13 07:02:48;;;;;;;4.80;2.80;;;-1.40;99.90;;;;;;5072004;28;20483;-72
2022/02/13 07:05:15;;;;;;;5.22;3.13;;;-1.50;99.90;;;;;;5054273;28;20838;-72
2022/02/13 07:07:47;;;;;;;7.15;3.60;;;-1.50;99.90;;;;;;5072360;28;20045;-73
2022/02/13 07:10:14;;;;;;;7.22;4.32;;;-1.50;99.90;;;;;;5054838;28;20051;-73
2022/02/13 07:12:48;;;;;;;8.25;5.20;;;-1.50;99.90;;;;;;5055278;28;20048;-73
2022/02/13 07:15:15;;;;;;;7.60;4.90;;;-1.50;99.90;;;;;;5054322;28;20091;-73
2022/02/13 07:17:42;;;;;;;9.73;5.82;;;-1.50;99.90;;;;;;5072356;28;20117;-73
2022/02/13 07:20:14;;;;;;;11.95;6.93;;;-1.50;99.90;;;;;;5072176;28;20124;-72
2022/02/13 07:22:44;;;;;;;9.35;6.05;;;-1.50;99.90;;;;;;5071369;28;20071;-73
2022/02/13 07:25:15;;;;;;;21.42;13.45;;;-1.50;99.90;;;;;;5054206;28;20048;-73
2022/02/13 07:27:48;;;;;;;33.58;17.50;;;-1.60;99.90;;;;;;5054143;28;20055;-73
2022/02/13 07:30:20;;;;;;;74.15;26.75;;;-1.60;99.90;;;;;;5055140;28;20055;-73
2022/02/13 07:32:52;;;;;;;37.60;17.10;;;-1.60;99.90;;;;;;5071625;28;20033;-73
2022/02/13 07:35:24;;;;;;;22.20;13.90;;;-1.60;99.90;;;;;;5070883;28;20037;-73
2022/02/13 07:37:51;;;;;;;34.72;16.13;;;-1.60;99.90;;;;;;5072036;28;20438;-73
2022/02/13 07:40:22;;;;;;;41.50;18.30;;;-1.60;99.90;;;;;;5038209;28;20044;-73
2022/02/13 07:42:54;;;;;;;58.47;21.50;;;-1.60;99.90;;;;;;5053426;28;20055;-73
2022/02/13 07:45:27;;;;;;;26.15;15.70;;;-1.60;99.90;;;;;;5071782;28;20410;-73
2022/02/13 07:47:59;;;;;;;37.30;16.40;;;-1.50;99.90;;;;;;5071778;28;20054;-73
2022/02/13 07:50:31;;;;;;;57.95;23.45;;;-1.50;99.90;;;;;;5071752;28;20496;-73
2022/02/13 07:52:58;;;;;;;76.32;26.05;;;-1.50;99.90;;;;;;5071217;28;20136;-72
2022/02/13 07:55:32;;;;;;;74.55;26.80;;;-1.40;99.90;;;;;;5054721;28;20032;-73
2022/02/13 07:58:03;;;;;;;40.83;17.67;;;-1.40;99.90;;;;;;5053641;28;20518;-73
2022/02/13 08:00:38;;;;;;;33.08;16.50;;;-1.30;99.90;;;;;;5069909;28;20045;-73
2022/02/13 08:03:10;;;;;;;25.27;16.20;;;-1.20;99.90;;;;;;5052657;28;20460;-73
2022/02/13 08:05:41;;;;;;;20.50;13.45;;;-1.00;99.90;;;;;;5053095;28;20449;-73
2022/02/13 08:08:09;;;;;;;16.40;10.63;;;-0.90;99.90;;;;;;5069708;28;20480;-72
2022/02/13 08:10:38;;;;;;;14.60;9.18;;;-0.80;99.90;;;;;;5070990;28;20075;-73
2022/02/13 08:13:13;;;;;;;13.98;9.85;;;-0.60;99.90;;;;;;5070542;28;20048;-73
2022/02/13 08:15:44;;;;;;;16.08;10.40;;;-0.50;99.90;;;;;;5052979;28;20040;-73
2022/02/13 08:18:16;;;;;;;12.35;9.70;;;-0.40;99.90;;;;;;5036848;28;20238;-73
2022/02/13 08:20:49;;;;;;;10.18;7.45;;;-0.30;99.90;;;;;;5069945;28;20426;-73
2022/02/13 08:23:20;;;;;;;10.45;7.28;;;-0.20;99.90;;;;;;5052519;28;20068;-73
2022/02/13 08:25:52;;;;;;;13.88;9.20;;;-0.20;99.90;;;;;;5069616;28;20044;-73
2022/02/13 08:28:19;;;;;;;13.77;8.73;;;-0.10;99.90;;;;;;5069546;28;20487;-73
2022/02/13 08:30:46;;;;;;;9.98;7.07;;;0.00;99.90;;;;;;5069564;28;20135;-73
2022/02/13 08:33:13;;;;;;;7.68;5.55;;;0.10;99.90;;;;;;5069258;28;20131;-73
2022/02/13 08:35:45;;;;;;;9.70;6.03;;;0.20;99.90;;;;;;5073243;28;20064;-73
2022/02/13 08:38:17;;;;;;;8.52;6.88;;;0.30;99.90;;;;;;5056660;28;20040;-73
2022/02/13 08:40:50;;;;;;;10.70;7.18;;;0.30;99.90;;;;;;5057700;28;20114;-73
2022/02/13 08:43:22;;;;;;;10.23;6.95;;;0.40;99.90;;;;;;5040575;28;20124;-73
2022/02/13 08:45:50;;;;;;;8.18;6.53;;;0.60;99.90;;;;;;5074544;28;20040;-73
2022/02/13 08:48:22;;;;;;;8.00;5.57;;;0.70;99.90;;;;;;5056495;28;20145;-73
2022/02/13 08:50:52;;;;;;;9.32;5.57;;;0.80;99.90;;;;;;5040120;28;20058;-73
2022/02/13 08:53:25;;;;;;;13.70;10.98;;;1.10;99.90;;;;;;5056284;28;20513;-73
2022/02/13 08:55:56;;;;;;;14.80;9.10;;;1.30;99.90;;;;;;5074432;28;20044;-73
2022/02/13 08:58:28;;;;;;;10.95;7.47;;;1.40;99.90;;;;;;5074474;28;20039;-73
2022/02/13 09:01:00;;;;;;;10.20;6.28;;;1.40;99.90;;;;;;5056501;28;20087;-73
2022/02/13 09:03:33;;;;;;;12.93;8.15;;;1.50;99.90;;;;;;5056528;28;20567;-73
2022/02/13 09:06:06;;;;;;;21.17;13.30;;;1.50;99.90;;;;;;5074966;28;20120;-73
2022/02/13 09:08:38;;;;;;;24.65;15.43;;;1.60;99.90;;;;;;5056880;28;20126;-73
2022/02/13 09:11:10;;;;;;;23.33;14.13;;;1.70;99.90;;;;;;5074714;28;20044;-73
2022/02/13 09:13:37;;;;;;;11.43;7.55;;;1.80;99.90;;;;;;5056457;28;20140;-73
2022/02/13 09:16:09;;;;;;;28.27;17.50;;;1.90;99.90;;;;;;5074645;28;20044;-73
2022/02/13 09:18:43;;;;;;;12.60;8.30;;;2.00;99.90;;;;;;5041387;28;20132;-73
2022/02/13 09:21:10;;;;;;;10.18;7.32;;;2.10;99.90;;;;;;5056477;28;20151;-73
2022/02/13 09:23:37;;;;;;;9.40;6.78;;;2.20;99.90;;;;;;5056129;28;20041;-72
2022/02/13 09:26:10;;;;;;;20.17;11.82;;;2.30;99.90;;;;;;5056476;28;20135;-73
2022/02/13 09:28:42;;;;;;;12.05;7.22;;;2.40;99.90;;;;;;5040633;28;20525;-72
2022/02/13 09:31:14;;;;;;;9.23;6.10;;;2.60;99.90;;;;;;5057284;28;20051;-72
2022/02/13 09:33:45;;;;;;;10.57;6.88;;;2.70;99.90;;;;;;5056168;28;20135;-73
2022/02/13 09:36:13;;;;;;;12.07;6.97;;;2.80;99.90;;;;;;5056384;28;20550;-73
2022/02/13 09:38:46;;;;;;;21.90;11.70;;;3.00;99.90;;;;;;5074156;28;20051;-73
2022/02/13 09:41:18;;;;;;;13.90;8.87;;;3.10;99.90;;;;;;5074207;28;20150;-72
2022/02/13 09:43:54;;;;;;;30.35;12.73;;;3.30;99.90;;;;;;5039952;28;20279;-73
2022/02/13 09:46:29;;;;;;;49.92;21.70;;;3.40;99.90;;;;;;5073438;28;20135;-73
2022/02/13 09:49:01;;;;;;;59.60;23.90;;;3.50;99.90;;;;;;5040137;28;20135;-73
2022/02/13 09:51:33;;;;;;;72.97;32.08;;;3.60;99.90;;;;;;5073115;28;20468;-73
2022/02/13 09:54:05;;;;;;;42.47;19.35;;;3.70;99.90;;;;;;5039730;28;20065;-72
2022/02/13 09:56:34;;;;;;;18.67;10.15;;;3.80;99.90;;;;;;5074189;28;20060;-73
2022/02/13 09:59:03;;;;;;;17.02;8.70;;;4.10;99.90;;;;;;5055875;28;20083;-73
2022/02/13 10:01:45;;;;;;;7.20;4.05;;;4.30;99.90;;;;;;5055537;28;20051;-73
2022/02/13 10:04:12;;;;;;;8.93;4.13;;;4.70;99.90;;;;;;5071844;28;20044;-72
2022/02/13 10:06:41;;;;;;;8.50;4.45;;;5.30;99.90;;;;;;5072327;28;20574;-73
2022/02/13 10:09:09;;;;;;;7.05;3.60;;;5.80;99.90;;;;;;5072339;28;20128;-73
2022/02/13 10:11:43;;;;;;;6.40;3.70;;;6.10;99.90;;;;;;5055588;28;20049;-73
2022/02/13 10:14:14;;;;;;;8.60;4.20;;;6.40;99.90;;;;;;5055045;28;20084;-74
2022/02/13 10:16:49;;;;;;;14.55;4.47;;;6.60;99.90;;;;;;5055249;28;20055;-74
2022/02/13 10:19:25;;;;;;;9.68;3.85;;;6.70;99.90;;;;;;5072169;28;20517;-74
2022/02/13 10:21:59;;;;;;;11.02;4.35;;;6.90;99.90;;;;;;5072431;28;20139;-73
2022/02/13 10:24:38;;;;;;;5.75;3.28;;;7.00;99.90;;;;;;5055047;28;20127;-73
2022/02/13 10:27:13;;;;;;;;;;;7.20;99.90;;;;;;5056073;28;20144;-73
2022/02/13 10:29:46;;;;;;;8.25;3.80;;;7.20;99.90;;;;;;5072033;28;19920;-73
2022/02/13 10:32:29;;;;;;;7.93;3.75;;;7.30;99.90;;;;;;5071908;28;20147;-73
2022/02/13 10:35:04;;;;;;;6.55;4.30;;;7.30;99.90;;;;;;5073383;28;20398;-73
2022/02/13 10:37:43;;;;;;;5.53;3.70;;;7.40;99.90;;;;;;5071658;28;20127;-73
2022/02/13 10:40:20;;;;;;;6.07;3.78;;;7.50;99.90;;;;;;5073115;28;20123;-73
2022/02/13 10:43:09;;;;;;;5.57;3.65;;;7.60;99.90;;;;;;5054645;28;20044;-73
2022/02/13 10:45:41;;;;;;;5.63;3.92;;;7.60;99.90;;;;;;5038999;28;20167;-73
2022/02/13 10:48:15;;;;;;;8.07;3.92;;;7.70;99.90;;;;;;5073000;28;20530;-72
2022/02/13 10:50:46;;;;;;;8.77;3.60;;;7.70;99.90;;;;;;5054824;28;20055;-73
2022/02/13 10:53:13;;;;;;;7.97;4.40;;;7.70;99.90;;;;;;5054298;28;20076;-73
2022/02/13 10:55:41;;;;;;;6.82;3.60;;;7.80;99.90;;;;;;5054795;28;20067;-73
2022/02/13 10:58:13;;;;;;;8.83;3.80;;;7.90;99.90;;;;;;5053802;28;20098;-73
2022/02/13 11:00:44;;;;;;;8.07;3.88;;;8.00;99.90;;;;;;5055736;28;20440;-72
2022/02/13 11:03:18;;;;;;;6.53;3.75;;;8.00;99.90;;;;;;5053951;28;20079;-73
2022/02/13 11:05:45;;;;;;;9.10;4.13;;;8.00;99.90;;;;;;5072645;28;20041;-73
2022/02/13 11:08:18;;;;;;;6.53;3.85;;;8.10;99.90;;;;;;5071210;28;20060;-73
2022/02/13 11:10:52;;;;;;;7.80;4.00;;;8.10;99.90;;;;;;5055536;28;20115;-74
2022/02/13 11:13:26;;;;;;;8.65;5.63;;;8.20;99.90;;;;;;5054048;28;20496;-73
2022/02/13 11:15:58;;;;;;;5.80;4.30;;;8.30;99.90;;;;;;5071197;28;20119;-73
2022/02/13 11:18:33;;;;;;;7.47;4.28;;;8.30;99.90;;;;;;5071435;28;20036;-73
2022/02/13 11:21:06;;;;;;;7.32;4.15;;;8.40;99.90;;;;;;5071832;28;20556;-73
2022/02/13 11:23:52;;;;;;;7.95;4.25;;;8.40;99.90;;;;;;5072021;28;20049;-72
2022/02/13 11:26:37;;;;;;;8.38;4.30;;;8.50;99.90;;;;;;5071046;28;20135;-73
2022/02/13 11:29:05;;;;;;;6.80;4.13;;;8.60;99.90;;;;;;5070622;28;20487;-73
2022/02/13 11:31:40;;;;;;;7.35;4.10;;;8.60;99.90;;;;;;5053983;28;20079;-73
2022/02/13 11:34:14;;;;;;;8.38;4.32;;;8.70;99.90;;;;;;5071680;28;20106;-73
2022/02/13 11:36:54;;;;;;;6.43;3.95;;;8.70;99.90;;;;;;5070597;28;20559;-73
2022/02/13 11:39:32;;;;;;;6.85;4.82;;;8.70;99.90;;;;;;5071990;28;20127;-73
2022/02/13 11:42:05;;;;;;;7.97;4.47;;;8.80;99.90;;;;;;5070321;28;20050;-73
2022/02/13 11:44:41;;;;;;;4.90;3.92;;;8.80;99.90;;;;;;5070348;28;20507;-73
2022/02/13 11:47:11;;;;;;;10.13;4.30;;;8.90;99.90;;;;;;5070723;28;20135;-73
2022/02/13 11:50:09;;;;;;;5.72;3.75;;;9.00;99.90;;;;;;5070806;28;20124;-73
2022/02/13 11:52:55;;;;;;;8.13;4.68;;;9.00;99.90;;;;;;5071275;28;20036;-73
2022/02/13 11:55:31;;;;;;;7.60;4.20;;;9.10;99.90;;;;;;5071939;28;20580;-73
2022/02/13 11:58:02;;;;;;;11.18;4.32;;;9.20;99.90;;;;;;5053747;28;20602;-73
2022/02/13 12:00:38;;;;;;;6.93;4.05;;;9.20;99.90;;;;;;5070532;28;20472;-73
2022/02/13 12:03:17;;;;;;;6.50;4.22;;;9.20;99.90;;;;;;5071286;28;20052;-73
2022/02/13 12:06:02;;;;;;;7.13;4.00;;;9.30;99.90;;;;;;5071577;28;20041;-73
2022/02/13 12:08:34;;;;;;;6.00;4.18;;;9.30;99.90;;;;;;5053652;28;20467;-73
2022/02/13 12:11:07;;;;;;;9.35;3.65;;;9.40;99.90;;;;;;5070249;28;20040;-72
2022/02/13 12:13:38;;;;;;;12.43;3.63;;;9.40;99.80;;;;;;5070994;28;20071;-73
2022/02/13 12:16:11;;;;;;;8.77;4.28;;;9.50;99.90;;;;;;5071421;28;20051;-73
2022/02/13 12:18:50;;;;;;;9.45;4.85;;;9.60;99.40;;;;;;5053578;28;20136;-74
2022/02/13 12:21:27;;;;;;;10.25;3.65;;;9.60;98.10;;;;;;5070295;28;20041;-73
2022/02/13 12:24:03;;;;;;;8.25;4.15;;;9.60;98.00;;;;;;5069668;28;20139;-74
2022/02/13 12:26:30;;;;;;;5.95;3.90;;;9.70;97.90;;;;;;5070065;28;20502;-73
2022/02/13 12:29:02;;;;;;;9.55;4.10;;;9.80;98.00;;;;;;5054306;28;20139;-73
2022/02/13 12:31:30;;;;;;;7.03;4.20;;;9.80;97.60;;;;;;5053214;28;20079;-73
2022/02/13 12:34:02;;;;;;;5.65;4.10;;;9.80;97.20;;;;;;5071031;28;20040;-74
2022/02/13 12:36:34;;;;;;;7.90;4.13;;;9.90;97.50;;;;;;5071454;28;20491;-73
2022/02/13 12:39:07;;;;;;;9.63;3.95;;;9.90;97.80;;;;;;5053360;28;20131;-73
2022/02/13 12:41:50;;;;;;;5.45;3.97;;;10.00;96.80;;;;;;5053417;28;20131;-74
2022/02/13 12:44:21;;;;;;;6.53;4.15;;;10.10;96.10;;;;;;5052939;28;20131;-73
2022/02/13 12:46:53;;;;;;;5.93;3.22;;;10.10;95.30;;;;;;5071316;28;20127;-73
2022/02/13 12:49:25;;;;;;;4.68;2.88;;;10.20;95.20;;;;;;5053292;28;20041;-73
2022/02/13 12:51:58;;;;;;;7.38;3.67;;;10.30;94.90;;;;;;5071188;28;20127;-73
2022/02/13 12:54:29;;;;;;;8.48;3.17;;;10.30;93.80;;;;;;5070745;28;20072;-73
2022/02/13 12:57:22;;;;;;;7.05;3.03;;;10.30;93.10;;;;;;5071118;28;20402;-73
2022/02/13 12:59:54;;;;;;;4.28;2.78;;;10.40;93.40;;;;;;5071063;28;20047;-73
2022/02/13 13:02:23;;;;;;;6.85;3.03;;;10.40;92.70;;;;;;5069456;28;20526;-71
2022/02/13 13:05:17;;;;;;;4.45;3.20;;;10.50;93.20;;;;;;5070096;28;20495;-73
2022/02/13 13:07:47;;;;;;;7.25;3.50;;;10.40;93.70;;;;;;5052951;28;20071;-73